Time;durP1;ratioP1;P1;durP2;ratioP2;P2;SDS_P1;SDS_P2;PMS_P1;PMS_P2;Temp;Humidity;BMP_temperature;BMP_pressure;BME280_temperature;BME280_humidity;BME280_pressure;Samples;Min_cycle;Max_cycle;Signal;HPM_P1;HPM_P2
2023/05/24 00:02:05;;;;;;;9.82;7.60;;;;;;;17.14;100.00;100183.22;4894408;29;20065;-68
2023/05/24 00:04:31;;;;;;;13.40;7.40;;;;;;;17.07;100.00;100175.34;4894715;29;20395;-69
2023/05/24 00:06:57;;;;;;;14.38;7.57;;;;;;;16.87;100.00;100173.44;4894753;29;20108;-68
2023/05/24 00:09:22;;;;;;;11.25;6.38;;;;;;;16.63;100.00;100193.28;4877866;29;20041;-70
2023/05/24 00:11:48;;;;;;;9.02;5.80;;;;;;;16.15;100.00;100166.84;4894136;29;20060;-71
2023/05/24 00:14:13;;;;;;;11.80;6.03;;;;;;;15.31;100.00;100076.59;4894237;29;20084;-68
2023/05/24 00:16:39;;;;;;;10.52;6.13;;;;;;;15.86;100.00;100182.16;4894632;29;20409;-68
2023/05/24 00:19:04;;;;;;;8.68;5.70;;;;;;;15.73;100.00;100155.09;4894520;29;20038;-73
2023/05/24 00:21:31;;;;;;;8.90;6.25;;;;;;;15.78;100.00;100181.19;4894584;29;20432;-69
2023/05/24 00:23:56;;;;;;;9.23;6.32;;;;;;;15.77;100.00;100177.69;4877912;29;20514;-72
2023/05/24 00:26:22;;;;;;;11.48;6.13;;;;;;;15.83;100.00;100179.53;4896204;29;20075;-70
2023/05/24 00:28:47;;;;;;;9.75;5.90;;;;;;;15.74;100.00;100155.97;4881461;29;20032;-70
2023/05/24 00:31:13;;;;;;;10.30;5.70;;;;;;;15.53;100.00;100170.50;4898078;29;20028;-68
2023/05/24 00:33:38;;;;;;;9.25;5.68;;;;;;;15.45;100.00;100188.63;4897922;29;20033;-71
2023/05/24 00:36:04;;;;;;;11.63;5.75;;;;;;;15.14;100.00;100189.91;4897560;29;20033;-70
2023/05/24 00:38:30;;;;;;;12.70;6.25;;;;;;;14.99;100.00;100191.47;4881020;29;20088;-67
2023/05/24 00:40:56;;;;;;;10.65;6.22;;;;;;;14.78;100.00;100175.53;4897324;29;20431;-67
2023/05/24 00:43:22;;;;;;;10.77;6.35;;;;;;;14.64;100.00;100188.28;4898197;29;20040;-68
2023/05/24 00:45:47;;;;;;;11.00;7.13;;;;;;;14.62;100.00;100157.09;4864445;29;20131;-67
2023/05/24 00:48:14;;;;;;;10.82;7.38;;;;;;;14.53;100.00;100164.78;4897873;29;20398;-68
2023/05/24 00:50:40;;;;;;;14.02;7.68;;;;;;;14.68;100.00;100171.97;4897734;29;20024;-74
2023/05/24 00:53:07;;;;;;;14.85;7.47;;;;;;;14.68;100.00;100148.56;4897837;29;20032;-74
2023/05/24 00:55:35;;;;;;;10.60;7.15;;;;;;;14.83;100.00;100174.78;4897534;29;20029;-70
2023/05/24 00:58:01;;;;;;;12.40;7.13;;;;;;;14.88;100.00;100169.66;4897553;29;20563;-67
2023/05/24 01:00:28;;;;;;;13.32;7.65;;;;;;;14.26;100.00;100097.69;4897644;29;20025;-68
2023/05/24 01:02:53;;;;;;;12.77;7.32;;;;;;;14.76;100.00;100174.66;4897447;29;20095;-68
2023/05/24 01:05:20;;;;;;;10.95;8.43;;;;;;;14.79;100.00;100179.91;4897873;29;20048;-68
2023/05/24 01:08:10;;;;;;;13.98;8.68;;;;;;;14.38;100.00;100092.66;4897384;29;20546;-67
2023/05/24 01:10:41;;;;;;;11.20;6.38;;;;;;;14.96;100.00;100174.97;4898042;29;20064;-69
2023/05/24 01:13:46;;;;;;;7.97;5.90;;;;;;;15.09;100.00;100178.59;4897975;29;20084;-67
2023/05/24 01:16:21;;;;;;;8.10;5.50;;;;;;;15.08;100.00;100174.22;4889985;29;20100;-70
2023/05/24 01:18:51;;;;;;;11.73;6.38;;;;;;;15.02;100.00;100164.66;4896890;29;20051;-67
2023/05/24 01:21:37;;;;;;;6.65;5.13;;;;;;;15.01;100.00;100179.34;4897090;29;20115;-73
2023/05/24 01:24:35;;;;;;;8.70;5.35;;;;;;;14.50;100.00;100177.69;4896894;29;20072;-67
2023/05/24 01:27:06;;;;;;;9.80;6.45;;;;;;;14.34;100.00;100171.38;4897208;29;20032;-70
2023/05/24 01:29:34;;;;;;;27.73;8.27;;;;;;;14.11;100.00;100129.47;4880099;29;20044;-68
2023/05/24 01:32:00;;;;;;;22.02;8.45;;;;;;;14.47;100.00;100175.91;4896667;29;20035;-66
2023/05/24 01:34:26;;;;;;;13.32;8.32;;;;;;;14.51;100.00;100167.31;4896952;29;20125;-68
2023/05/24 01:36:52;;;;;;;13.88;7.95;;;;;;;14.50;100.00;100168.16;4897038;29;20075;-70
2023/05/24 01:39:19;;;;;;;11.35;7.68;;;;;;;14.67;100.00;100181.47;4893012;29;20483;-70
2023/05/24 01:42:18;;;;;;;11.18;7.22;;;;;;;14.89;100.00;100179.16;4878895;29;20037;-69
2023/05/24 01:44:48;;;;;;;10.30;6.55;;;;;;;14.90;100.00;100180.94;4878412;29;20033;-69
2023/05/24 01:47:27;;;;;;;;;;;;;;;14.81;100.00;100173.88;4878884;29;20079;-69
2023/05/24 01:50:01;;;;;;;6.65;4.75;;;;;;;14.84;100.00;100179.13;4878046;29;19915;-70
2023/05/24 01:52:32;;;;;;;6.45;5.00;;;;;;;14.93;100.00;100175.78;4878305;29;20121;-68
2023/05/24 01:54:59;;;;;;;15.30;6.22;;;;;;;14.70;100.00;100142.56;4878794;29;20037;-69
2023/05/24 01:57:26;;;;;;;7.20;4.82;;;;;;;14.32;100.00;100098.63;4878450;29;20041;-70
2023/05/24 01:59:53;;;;;;;13.18;6.32;;;;;;;14.07;100.00;100134.56;4878184;29;20029;-69
2023/05/24 02:02:19;;;;;;;17.73;7.35;;;;;;;14.09;100.00;100183.91;4877803;29;20037;-68
2023/05/24 02:04:45;;;;;;;24.63;7.75;;;;;;;14.15;100.00;100177.97;4861645;29;20412;-67
2023/05/24 02:07:10;;;;;;;37.85;8.95;;;;;;;14.18;100.00;100185.81;4878198;29;20037;-70
2023/05/24 02:09:36;;;;;;;25.73;9.05;;;;;;;13.91;100.00;100166.31;4877973;29;20072;-69
2023/05/24 02:12:01;;;;;;;31.20;9.32;;;;;;;14.12;100.00;100193.47;4878246;29;20064;-69
2023/05/24 02:14:27;;;;;;;40.40;8.38;;;;;;;14.00;100.00;100181.16;4878323;29;20036;-69
2023/05/24 02:16:57;;;;;;;36.15;9.48;;;;;;;13.85;100.00;100195.59;4878189;29;20499;-69
2023/05/24 02:22:44;;;;;;;15.63;8.80;;;;;;;13.93;100.00;100200.06;5134402;23;20063;-69
2023/05/24 02:25:10;;;;;;;17.05;8.32;;;;;;;13.62;100.00;100137.22;4915034;29;20028;-69
2023/05/24 02:27:35;;;;;;;20.48;8.20;;;;;;;14.15;100.00;100204.78;4915628;29;20067;-68
2023/05/24 02:30:01;;;;;;;24.25;8.38;;;;;;;14.23;100.00;100202.34;4898650;29;20092;-69
2023/05/24 02:32:26;;;;;;;21.65;8.45;;;;;;;14.24;100.00;100199.78;4898619;29;20040;-69
2023/05/24 02:34:52;;;;;;;21.33;8.80;;;;;;;14.34;100.00;100203.41;4915539;29;20032;-70
2023/05/24 02:37:17;;;;;;;18.90;9.52;;;;;;;14.44;100.00;100207.03;4915251;29;20044;-68
2023/05/24 02:39:42;;;;;;;11.40;6.97;;;;;;;13.34;100.00;100066.63;4915331;29;20098;-69
2023/05/24 02:42:10;;;;;;;22.10;8.00;;;;;;;13.82;100.00;100211.13;4915443;29;20036;-68
2023/05/24 02:44:35;;;;;;;19.50;8.57;;;;;;;13.86;100.00;100192.16;4915154;29;20028;-68
2023/05/24 02:47:01;;;;;;;19.27;8.20;;;;;;;14.10;100.00;100206.44;4915418;29;20028;-68
2023/05/24 02:49:26;;;;;;;19.00;8.50;;;;;;;13.64;100.00;100128.59;4914888;29;20024;-68
2023/05/24 02:51:51;;;;;;;16.10;8.57;;;;;;;14.11;100.00;100217.72;4915289;29;20107;-69
2023/05/24 02:54:17;;;;;;;12.35;8.35;;;;;;;14.10;100.00;100232.41;4915148;29;20430;-68
2023/05/24 02:56:43;;;;;;;13.20;7.90;;;;;;;13.95;100.00;100220.00;4915300;29;20092;-68
2023/05/24 02:59:08;;;;;;;17.30;8.63;;;;;;;13.79;100.00;100223.16;4915034;29;20031;-68
2023/05/24 03:01:34;;;;;;;11.27;8.45;;;;;;;13.87;100.00;100225.06;4915189;29;20043;-68
2023/05/24 03:03:59;;;;;;;13.23;8.80;;;;;;;14.05;100.00;100223.66;4915091;29;20566;-68
2023/05/24 03:06:25;;;;;;;13.55;9.05;;;;;;;14.17;100.00;100221.28;4915107;29;20035;-68
2023/05/24 03:08:50;;;;;;;16.98;8.57;;;;;;;14.17;100.00;100220.44;4914929;29;20103;-69
2023/05/24 03:11:20;;;;;;;16.88;8.52;;;;;;;14.08;100.00;100216.81;4915001;29;20043;-68
2023/05/24 03:13:46;;;;;;;12.35;9.45;;;;;;;13.47;100.00;100117.03;4915166;29;20160;-68
2023/05/24 03:16:11;;;;;;;19.67;10.02;;;;;;;14.05;100.00;100206.34;4898024;29;20111;-69
2023/05/24 03:18:37;;;;;;;13.52;9.50;;;;;;;14.26;100.00;100227.50;4914880;29;20123;-68
2023/05/24 03:21:02;;;;;;;14.30;8.55;;;;;;;14.32;100.00;100228.47;4914574;29;20032;-69
2023/05/24 03:23:28;;;;;;;16.65;9.27;;;;;;;14.39;100.00;100219.94;4914567;29;20143;-68
2023/05/24 03:25:53;;;;;;;11.73;8.57;;;;;;;14.41;100.00;100227.75;4914658;29;20119;-69
2023/05/24 03:28:21;;;;;;;13.20;8.90;;;;;;;14.44;100.00;100221.75;4914813;29;20065;-68
2023/05/24 03:30:46;;;;;;;13.80;8.10;;;;;;;14.48;100.00;100232.22;4897013;29;20414;-69
2023/05/24 03:33:12;;;;;;;21.70;8.10;;;;;;;13.90;100.00;100212.13;4914735;29;20038;-68
2023/05/24 03:35:37;;;;;;;14.82;8.55;;;;;;;13.82;100.00;100221.50;4914599;29;20031;-68
2023/05/24 03:38:03;;;;;;;11.80;9.45;;;;;;;13.93;100.00;100223.41;4914546;29;20102;-68
2023/05/24 03:40:31;;;;;;;13.73;8.45;;;;;;;14.02;100.00;100218.41;4914839;29;20036;-68
2023/05/24 03:42:57;;;;;;;14.32;8.13;;;;;;;13.97;100.00;100231.31;4914347;29;20048;-70
2023/05/24 03:45:22;;;;;;;8.68;7.78;;;;;;;13.94;100.00;100235.56;4914670;29;20562;-70
2023/05/24 03:47:48;;;;;;;10.73;8.77;;;;;;;13.94;100.00;100230.38;4897594;29;20062;-70
2023/05/24 03:50:13;;;;;;;8.45;7.55;;;;;;;13.89;100.00;100212.09;4914531;29;20071;-68
2023/05/24 03:52:39;;;;;;;10.88;7.68;;;;;;;13.87;100.00;100206.03;4914470;29;20032;-69
2023/05/24 03:55:05;;;;;;;8.00;7.20;;;;;;;13.86;100.00;100197.34;4914769;29;20087;-69
2023/05/24 03:57:30;;;;;;;8.48;7.57;;;;;;;14.10;100.00;100240.19;4914792;29;20083;-68
2023/05/24 03:59:56;;;;;;;8.65;7.50;;;;;;;14.15;100.00;100233.34;4912439;29;20051;-69
2023/05/24 04:02:21;;;;;;;9.65;8.45;;;;;;;13.69;100.00;100144.25;4883764;29;20048;-70
2023/05/24 04:04:47;;;;;;;11.10;8.23;;;;;;;14.20;100.00;100236.03;4914052;29;20032;-69
2023/05/24 04:07:14;;;;;;;8.13;7.18;;;;;;;14.20;100.00;100233.44;4917363;29;20032;-69
2023/05/24 04:09:39;;;;;;;8.18;7.35;;;;;;;14.19;100.00;100237.78;4912122;29;20036;-69
2023/05/24 04:12:05;;;;;;;8.48;7.47;;;;;;;14.23;100.00;100242.16;4899020;29;20028;-72
2023/05/24 04:14:30;;;;;;;10.15;8.18;;;;;;;14.20;100.00;100249.88;4899421;29;20443;-69
2023/05/24 04:16:56;;;;;;;10.55;8.07;;;;;;;14.21;100.00;100243.00;4898943;29;20056;-75
2023/05/24 04:19:21;;;;;;;10.10;8.32;;;;;;;14.02;100.00;100255.63;4898807;29;20037;-74
2023/05/24 04:21:47;;;;;;;9.88;7.60;;;;;;;14.08;100.00;100250.53;4898498;29;20480;-71
2023/05/24 04:24:13;;;;;;;9.30;8.30;;;;;;;14.19;100.00;100255.06;4881903;29;20470;-68
2023/05/24 04:26:39;;;;;;;10.63;8.07;;;;;;;14.06;100.00;100233.19;4900345;29;20051;-70
2023/05/24 04:29:04;;;;;;;8.52;7.57;;;;;;;14.19;100.00;100245.56;4917242;29;20146;-70
2023/05/24 04:31:32;;;;;;;10.82;8.48;;;;;;;14.25;100.00;100234.41;4917284;29;20039;-69
2023/05/24 04:33:58;;;;;;;14.45;9.13;;;;;;;14.33;100.00;100225.03;4917372;29;20083;-67
2023/05/24 04:36:24;;;;;;;11.25;8.82;;;;;;;13.99;100.00;100176.81;4915833;29;20024;-68
2023/05/24 04:38:52;;;;;;;10.10;7.93;;;;;;;14.24;100.00;100220.56;4917354;29;20067;-68
2023/05/24 04:41:18;;;;;;;9.98;8.32;;;;;;;14.01;100.00;100180.31;4915910;29;20059;-69
2023/05/24 04:43:44;;;;;;;12.65;8.65;;;;;;;14.48;100.00;100236.53;4916894;29;20028;-68
2023/05/24 04:46:09;;;;;;;10.85;9.27;;;;;;;14.52;100.00;100238.34;4916920;29;20039;-69
2023/05/24 04:48:35;;;;;;;13.18;9.10;;;;;;;13.97;100.00;100168.13;4916555;29;20036;-72
2023/05/24 04:51:00;;;;;;;13.60;8.90;;;;;;;14.40;100.00;100251.97;4916653;29;20084;-68
2023/05/24 04:53:26;;;;;;;12.85;10.20;;;;;;;14.40;100.00;100251.97;4916824;29;20024;-68
2023/05/24 04:55:52;;;;;;;13.55;9.20;;;;;;;14.31;100.00;100229.31;4883185;29;20047;-69
2023/05/24 04:58:18;;;;;;;12.30;9.82;;;;;;;14.43;100.00;100239.06;4916786;29;20024;-67
2023/05/24 05:00:44;;;;;;;12.90;9.63;;;;;;;14.54;100.00;100249.63;4916937;29;20032;-69
2023/05/24 05:03:10;;;;;;;11.38;9.45;;;;;;;14.61;100.00;100251.47;4916717;29;20031;-69
2023/05/24 05:05:35;;;;;;;12.45;9.57;;;;;;;14.58;100.00;100259.22;4916096;29;20028;-69
2023/05/24 05:08:01;;;;;;;14.82;10.57;;;;;;;14.64;100.00;100254.16;4916487;29;20032;-69
2023/05/24 05:10:27;;;;;;;10.93;8.77;;;;;;;14.22;100.00;100178.09;4916254;29;20411;-69
2023/05/24 05:12:52;;;;;;;12.15;8.82;;;;;;;14.27;100.00;100247.41;4858992;29;20495;-68
2023/05/24 05:15:21;;;;;;;12.07;9.45;;;;;;;14.27;100.00;100245.69;4874480;29;20045;-68
2023/05/24 05:17:46;;;;;;;10.93;9.80;;;;;;;14.33;100.00;100238.03;4874533;29;20077;-68
2023/05/24 05:20:12;;;;;;;10.52;8.98;;;;;;;14.49;100.00;100256.47;4874588;29;20075;-69
2023/05/24 05:22:37;;;;;;;11.55;9.48;;;;;;;14.50;100.00;100253.03;4874164;29;20202;-69
2023/05/24 05:25:03;;;;;;;12.32;9.15;;;;;;;14.40;100.00;100218.22;4876264;29;20074;-68
2023/05/24 05:27:28;;;;;;;12.38;9.75;;;;;;;14.69;100.00;100249.94;4860847;29;20041;-68
2023/05/24 05:29:54;;;;;;;11.23;9.40;;;;;;;14.79;100.00;100261.34;4876125;29;20029;-70
2023/05/24 05:32:19;;;;;;;12.13;9.98;;;;;;;14.94;100.00;100255.53;4875999;29;20519;-70
2023/05/24 05:34:45;;;;;;;10.18;9.07;;;;;;;15.07;100.00;100258.31;4875411;29;20043;-69
2023/05/24 05:37:10;;;;;;;10.80;9.65;;;;;;;14.76;100.00;100242.22;4875892;29;20120;-68
2023/05/24 05:39:36;;;;;;;12.38;9.98;;;;;;;14.80;100.00;100263.06;4876143;29;20473;-69
2023/05/24 05:42:01;;;;;;;10.55;9.45;;;;;;;14.81;100.00;100259.63;4876276;29;20033;-68
2023/05/24 05:44:27;;;;;;;12.13;9.73;;;;;;;14.85;100.00;100263.16;4905175;29;20422;-69
2023/05/24 05:46:52;;;;;;;11.75;10.23;;;;;;;14.56;100.00;100181.25;4915753;29;20054;-69
2023/05/24 05:49:18;;;;;;;11.90;10.38;;;;;;;15.23;100.00;100268.09;4915543;29;20487;-69
2023/05/24 05:51:44;;;;;;;13.38;10.60;;;;;;;15.18;100.00;100243.75;4882304;29;20044;-67
2023/05/24 05:54:14;;;;;;;12.55;9.73;;;;;;;15.35;100.00;100259.56;4915416;29;20028;-68
2023/05/24 05:56:44;;;;;;;11.68;9.57;;;;;;;15.56;100.00;100268.53;4915373;29;20048;-69
2023/05/24 05:59:10;;;;;;;11.68;10.48;;;;;;;15.69;100.00;100268.69;4915581;29;20040;-68
2023/05/24 06:01:36;;;;;;;12.30;10.88;;;;;;;15.71;100.00;100270.47;4915684;29;20087;-70
2023/05/24 06:04:01;;;;;;;13.85;11.25;;;;;;;15.67;100.00;100265.19;4915501;29;20028;-69
2023/05/24 06:06:26;;;;;;;13.40;12.00;;;;;;;15.67;100.00;100273.00;4915583;29;20052;-70
2023/05/24 06:08:52;;;;;;;16.45;12.55;;;;;;;15.74;100.00;100271.38;4915403;29;20020;-70
2023/05/24 06:11:17;;;;;;;14.40;11.55;;;;;;;15.88;100.00;100274.16;4915558;29;20042;-72
2023/05/24 06:13:43;;;;;;;18.05;13.23;;;;;;;15.48;100.00;100200.78;4915920;29;20032;-69
2023/05/24 06:16:08;;;;;;;14.05;11.88;;;;;;;15.68;100.00;100211.44;4915856;29;20064;-75
2023/05/24 06:18:35;;;;;;;16.55;12.48;;;;;;;15.99;100.00;100284.72;4915000;29;20055;-71
2023/05/24 06:21:00;;;;;;;12.60;11.30;;;;;;;16.11;100.00;100271.84;4882291;29;20088;-69
2023/05/24 06:23:26;;;;;;;14.55;11.75;;;;;;;16.30;100.00;100278.13;4914885;29;20051;-69
2023/05/24 06:25:51;;;;;;;15.15;11.52;;;;;;;16.47;100.00;100273.09;4915312;29;20028;-69
2023/05/24 06:28:17;;;;;;;13.13;11.73;;;;;;;16.58;100.00;100280.97;4915351;29;20083;-69
2023/05/24 06:30:42;;;;;;;16.85;12.18;;;;;;;16.60;100.00;100258.41;4915089;29;20103;-69
2023/05/24 06:33:07;;;;;;;14.70;11.13;;;;;;;16.82;100.00;100269.91;4915000;29;20542;-71
2023/05/24 06:35:33;;;;;;;15.10;11.32;;;;;;;16.71;100.00;100226.34;4915344;29;20115;-69
2023/05/24 06:37:58;;;;;;;12.57;10.45;;;;;;;17.12;100.00;100280.56;4915115;29;20028;-68
2023/05/24 06:40:24;;;;;;;13.00;11.10;;;;;;;17.02;100.00;100258.78;4914950;29;20027;-69
2023/05/24 06:42:49;;;;;;;15.02;11.30;;;;;;;17.14;100.00;100258.84;4914680;29;20498;-70
2023/05/24 06:45:36;;;;;;;13.25;11.05;;;;;;;17.32;100.00;100274.63;4914814;29;20024;-69
2023/05/24 06:48:01;;;;;;;14.25;10.70;;;;;;;16.93;100.00;100201.34;4843709;29;20045;-71
2023/05/24 06:50:27;;;;;;;12.40;10.38;;;;;;;17.43;100.00;100278.16;4874911;29;20056;-72
2023/05/24 06:52:52;;;;;;;13.07;11.75;;;;;;;17.14;100.00;100208.44;4843807;29;20056;-69
2023/05/24 06:55:18;;;;;;;14.32;11.50;;;;;;;17.57;100.00;100254.75;4874840;29;20056;-69
2023/05/24 06:57:44;;;;;;;13.40;11.70;;;;;;;17.74;100.00;100268.75;4874878;29;20040;-69
2023/05/24 07:00:11;;;;;;;14.93;10.63;;;;;;;17.74;100.00;100271.34;4873733;29;20037;-71
2023/05/24 07:02:40;;;;;;;14.80;11.30;;;;;;;17.84;100.00;100277.50;4872474;29;20052;-69
2023/05/24 07:05:10;;;;;;;13.80;11.45;;;;;;;17.90;100.00;100256.63;4872181;29;20128;-69
2023/05/24 07:07:38;;;;;;;14.80;11.75;;;;;;;18.05;100.00;100234.06;4839668;29;20041;-69
2023/05/24 07:10:04;;;;;;;11.32;9.85;;;;;;;18.15;100.00;100234.97;4855125;29;20762;-74
2023/05/24 07:12:31;;;;;;;12.95;11.02;;;;;;;18.36;100.00;100247.19;4825046;29;20114;-69
2023/05/24 07:14:56;;;;;;;11.77;9.95;;;;;;;18.52;100.00;100259.41;4855899;29;20052;-70
2023/05/24 07:17:22;;;;;;;12.65;10.98;;;;;;;18.68;100.00;100259.41;4855947;29;20033;-69
2023/05/24 07:19:47;;;;;;;13.68;10.45;;;;;;;18.85;100.00;100265.50;4887703;29;20044;-71
2023/05/24 07:22:13;;;;;;;12.30;10.35;;;;;;;18.89;100.00;100272.50;4896591;29;20052;-71
2023/05/24 07:24:38;;;;;;;11.95;10.75;;;;;;;18.65;100.00;100217.59;4913982;29;20522;-69
2023/05/24 07:27:04;;;;;;;14.23;11.48;;;;;;;18.52;100.00;100201.91;4911065;29;20337;-71
2023/05/24 07:29:31;;;;;;;14.35;10.50;;;;;;;18.97;100.00;100256.81;4879093;29;20036;-73
2023/05/24 07:31:57;;;;;;;13.23;11.02;;;;;;;19.16;100.00;100269.88;4855955;29;20048;-72
2023/05/24 07:34:26;;;;;;;10.27;9.18;;;;;;;19.28;100.00;100271.59;4873021;29;20408;-69
2023/05/24 07:36:52;;;;;;;14.52;9.95;;;;;;;19.30;100.00;100272.47;4871927;29;20045;-69
2023/05/24 07:39:17;;;;;;;12.57;9.65;;;;;;;19.48;100.00;100277.66;4864234;29;20033;-69
2023/05/24 07:41:43;;;;;;;13.68;10.02;;;;;;;19.43;100.00;100273.31;4872673;29;20093;-71
2023/05/24 07:44:09;;;;;;;11.45;10.27;;;;;;;19.51;100.00;100277.63;4857895;29;20124;-70
2023/05/24 07:46:34;;;;;;;10.00;8.85;;;;;;;19.58;100.00;100282.84;4873656;29;20480;-72
2023/05/24 07:49:00;;;;;;;10.45;8.32;;;;;;;19.76;100.00;100285.41;4873499;29;20035;-72
2023/05/24 07:51:25;;;;;;;10.63;8.15;;;;;;;19.93;100.00;100282.78;4871667;29;20037;-71
2023/05/24 07:53:51;;;;;;;11.68;8.20;;;;;;;20.01;100.00;100282.72;4856078;29;20185;-69
2023/05/24 07:56:17;;;;;;;11.15;7.70;;;;;;;20.13;100.00;100285.28;4871164;29;20056;-71
2023/05/24 07:58:45;;;;;;;11.57;7.15;;;;;;;20.23;100.00;100280.00;4872088;29;20037;-70
2023/05/24 08:01:12;;;;;;;11.15;7.15;;;;;;;20.28;100.00;100272.97;4873537;29;20508;-74
2023/05/24 08:03:38;;;;;;;11.23;7.60;;;;;;;20.33;100.00;100258.09;4873490;29;20421;-71
2023/05/24 08:06:04;;;;;;;8.65;6.28;;;;;;;20.27;100.00;100237.16;4873390;29;20111;-72
2023/05/24 08:08:29;;;;;;;7.82;6.43;;;;;;;20.17;100.00;100204.88;4878109;29;20135;-75
2023/05/24 08:10:55;;;;;;;7.28;5.60;;;;;;;20.60;100.00;100271.88;4910999;29;20425;-71
2023/05/24 08:13:20;;;;;;;7.82;5.25;;;;;;;20.46;98.61;100270.25;4913464;29;20038;-72
2023/05/24 08:15:46;;;;;;;7.05;5.65;;;;;;;20.51;100.00;100273.69;4873807;29;20040;-69
2023/05/24 08:18:11;;;;;;;14.48;5.93;;;;;;;20.27;100.00;100210.94;4873933;29;20393;-69
2023/05/24 08:20:37;;;;;;;6.50;4.70;;;;;;;20.74;95.99;100275.31;4873818;29;20077;-70
2023/05/24 08:23:02;;;;;;;7.20;4.50;;;;;;;20.68;96.56;100235.97;4858025;29;20126;-69
2023/05/24 08:25:28;;;;;;;7.35;4.63;;;;;;;20.60;97.29;100191.44;4873561;29;20056;-69
2023/05/24 08:27:56;;;;;;;10.18;4.65;;;;;;;20.85;95.05;100205.22;4873999;29;20041;-69
2023/05/24 08:30:22;;;;;;;8.57;5.30;;;;;;;21.04;95.74;100222.56;4873796;29;20045;-71
2023/05/24 08:32:47;;;;;;;6.07;4.55;;;;;;;21.47;95.80;100279.84;4874168;29;20546;-68
2023/05/24 08:35:13;;;;;;;7.30;4.70;;;;;;;21.52;92.62;100266.66;4873947;29;20037;-69
2023/05/24 08:37:38;;;;;;;9.05;4.43;;;;;;;21.72;89.51;100279.59;4873979;29;20571;-69
2023/05/24 08:40:04;;;;;;;7.65;4.38;;;;;;;21.69;90.71;100267.38;4873895;29;20056;-74
2023/05/24 08:42:30;;;;;;;6.60;4.35;;;;;;;21.46;90.67;100204.59;4873567;29;20055;-69
2023/05/24 08:45:12;;;;;;;6.70;3.80;;;;;;;21.98;89.17;100271.38;4872208;29;20037;-69
2023/05/24 08:47:39;;;;;;;6.82;3.97;;;;;;;21.89;82.05;100282.03;4894264;29;20049;-69
2023/05/24 08:50:07;;;;;;;7.20;3.83;;;;;;;21.86;82.57;100259.28;4897064;29;20032;-74
2023/05/24 08:52:33;;;;;;;7.13;4.05;;;;;;;22.11;84.92;100286.09;4896010;29;20115;-70
2023/05/24 08:54:59;;;;;;;7.07;4.70;;;;;;;22.20;83.74;100281.63;4898160;29;20039;-69
2023/05/24 08:57:29;;;;;;;7.40;4.47;;;;;;;22.23;87.61;100271.94;4898393;29;20040;-69
2023/05/24 08:59:55;;;;;;;5.40;4.20;;;;;;;22.45;81.87;100288.31;4898260;29;20172;-73
2023/05/24 09:02:21;;;;;;;8.48;4.10;;;;;;;22.24;83.01;100225.47;4898067;29;20124;-69
2023/05/24 09:04:52;;;;;;;5.70;4.18;;;;;;;22.71;77.92;100278.25;4897828;29;20036;-69
2023/05/24 09:07:22;;;;;;;6.35;4.30;;;;;;;22.14;76.49;100156.38;4896473;29;20041;-70
2023/05/24 09:09:57;;;;;;;6.10;3.90;;;;;;;22.84;78.57;100269.25;4897732;29;20033;-71
2023/05/24 09:12:23;;;;;;;8.77;4.93;;;;;;;22.89;78.34;100271.78;4897980;29;20044;-69
2023/05/24 09:14:49;;;;;;;6.63;3.83;;;;;;;22.97;76.63;100269.91;4898036;29;20036;-70
2023/05/24 09:17:15;;;;;;;8.90;4.30;;;;;;;22.95;80.11;100276.94;4897731;29;20033;-70
2023/05/24 09:19:51;;;;;;;9.60;4.25;;;;;;;23.03;77.39;100279.44;4897814;29;20396;-70
2023/05/24 09:22:22;;;;;;;5.32;4.40;;;;;;;23.22;75.61;100299.31;4906487;29;20581;-69
2023/05/24 09:24:48;;;;;;;5.03;3.78;;;;;;;23.43;75.55;100282.25;4915240;29;20461;-70
2023/05/24 09:27:15;;;;;;;5.90;3.80;;;;;;;23.52;73.64;100281.22;4915037;29;20097;-69
2023/05/24 09:29:42;;;;;;;12.10;4.70;;;;;;;23.14;76.65;100218.69;4915602;29;20035;-71
2023/05/24 09:32:08;;;;;;;6.00;4.35;;;;;;;23.20;74.57;100208.97;4898221;29;20051;-71
2023/05/24 09:34:43;;;;;;;7.03;3.53;;;;;;;23.40;71.49;100227.00;4915386;29;20028;-70
2023/05/24 09:37:28;;;;;;;5.70;4.05;;;;;;;23.71;72.16;100265.91;4915399;29;20036;-73
2023/05/24 09:39:54;;;;;;;6.65;3.50;;;;;;;23.43;74.76;100232.19;4913857;29;20216;-71
2023/05/24 09:42:25;;;;;;;6.55;3.78;;;;;;;23.52;74.31;100267.19;4915428;29;20036;-69
2023/05/24 09:45:06;;;;;;;8.27;4.35;;;;;;;23.37;75.11;100213.88;4914199;29;20483;-71
2023/05/24 09:47:33;;;;;;;6.95;4.10;;;;;;;23.81;72.01;100270.97;4914571;29;20490;-70
2023/05/24 09:50:00;;;;;;;6.05;4.18;;;;;;;23.57;72.13;100209.97;4897822;29;20505;-70
2023/05/24 09:52:26;;;;;;;7.75;4.43;;;;;;;23.57;74.11;100221.38;4914550;29;20502;-70
2023/05/24 09:54:52;;;;;;;6.03;4.20;;;;;;;23.87;76.12;100252.41;4914517;29;20032;-71
2023/05/24 09:57:17;;;;;;;6.05;4.22;;;;;;;23.64;74.27;100261.66;4914052;29;20379;-72
2023/05/24 09:59:43;;;;;;;4.78;3.60;;;;;;;23.79;72.51;100256.94;4914017;29;20035;-69
2023/05/24 10:02:10;;;;;;;7.55;4.47;;;;;;;23.63;71.39;100228.28;4914119;29;20031;-71
2023/05/24 10:04:39;;;;;;;6.00;4.00;;;;;;;23.51;76.43;100232.03;4895007;29;20406;-73
2023/05/24 10:07:06;;;;;;;6.97;4.18;;;;;;;23.57;74.34;100254.78;4910041;29;20024;-71
2023/05/24 10:09:33;;;;;;;5.90;3.75;;;;;;;23.51;76.11;100236.44;4912208;29;20131;-72
2023/05/24 10:12:06;;;;;;;7.18;4.13;;;;;;;23.57;73.26;100233.69;4912109;29;20511;-73
2023/05/24 10:14:36;;;;;;;6.40;4.47;;;;;;;23.78;74.27;100265.78;4912156;29;20035;-71
2023/05/24 10:17:06;;;;;;;6.47;4.15;;;;;;;23.96;74.04;100249.56;4914118;29;20048;-70
2023/05/24 10:19:36;;;;;;;6.68;4.10;;;;;;;24.19;74.23;100241.16;4914484;29;20036;-71
2023/05/24 10:22:06;;;;;;;5.78;4.18;;;;;;;24.33;73.90;100213.59;4857083;29;1648942;-71
2023/05/24 10:24:37;;;;;;;7.47;4.22;;;;;;;24.46;69.03;100214.16;4898104;29;20172;-74
2023/05/24 10:27:06;;;;;;;6.78;4.50;;;;;;;24.84;67.51;100236.09;4913773;29;20067;-73
2023/05/24 10:30:04;;;;;;;5.97;3.45;;;;;;;24.96;69.25;100234.91;4913811;29;20033;-71
2023/05/24 10:32:34;;;;;;;4.65;3.75;;;;;;;24.64;72.67;100208.41;4914391;29;20042;-71
2023/05/24 10:35:01;;;;;;;6.72;3.90;;;;;;;24.73;71.71;100230.25;4915020;29;20397;-74
2023/05/24 10:37:27;;;;;;;9.70;4.45;;;;;;;24.88;72.21;100227.19;4897443;29;20447;-70
2023/05/24 10:39:53;;;;;;;7.75;4.47;;;;;;;25.14;69.85;100223.84;4915372;29;20064;-68
2023/05/24 10:42:18;;;;;;;8.70;4.65;;;;;;;25.12;71.25;100214.22;4913990;29;20032;-70
2023/05/24 10:44:44;;;;;;;7.45;4.20;;;;;;;25.03;70.23;100224.16;4914533;29;20043;-70
2023/05/24 10:47:11;;;;;;;6.57;4.10;;;;;;;25.26;69.28;100216.47;4914169;29;20092;-70
2023/05/24 10:49:46;;;;;;;8.70;4.53;;;;;;;25.29;68.95;100196.13;4914786;29;20410;-70
2023/05/24 10:52:12;;;;;;;7.07;4.72;;;;;;;25.68;68.97;100205.59;4914395;29;20053;-71
2023/05/24 10:54:37;;;;;;;5.72;4.28;;;;;;;24.92;69.34;100096.81;4914412;29;20052;-71
2023/05/24 10:57:05;;;;;;;7.50;3.97;;;;;;;25.90;67.83;100197.03;4906712;29;20505;-69
2023/05/24 10:59:38;;;;;;;8.77;4.20;;;;;;;26.19;70.49;100193.47;4914634;29;20100;-73
2023/05/24 11:02:08;;;;;;;7.93;4.05;;;;;;;26.16;64.24;100177.72;4913803;29;20483;-70
2023/05/24 11:04:39;;;;;;;8.57;4.13;;;;;;;26.19;63.37;100190.84;4913741;29;20036;-70
2023/05/24 11:07:08;;;;;;;6.05;4.15;;;;;;;26.30;64.45;100167.53;4909373;29;20031;-70
2023/05/24 11:09:34;;;;;;;;;;;;;;;26.61;66.43;100202.72;4908407;29;20068;-72
2023/05/24 11:12:06;;;;;;;8.32;5.00;;;;;;;26.35;64.68;100137.41;4913886;29;19911;-69
2023/05/24 11:14:35;;;;;;;7.10;4.13;;;;;;;26.45;62.30;100208.50;4914216;29;20376;-71
2023/05/24 11:17:01;;;;;;;5.95;3.80;;;;;;;26.00;63.45;100150.88;4914290;29;20028;-72
2023/05/24 11:19:36;;;;;;;6.47;4.10;;;;;;;26.30;64.37;100201.94;4912991;29;20044;-72